Time;durP1;ratioP1;P1;durP2;ratioP2;P2;SDS_P1;SDS_P2;PMS_P1;PMS_P2;Temp;Humidity;BMP_temperature;BMP_pressure;BME280_temperature;BME280_humidity;BME280_pressure;Samples;Min_cycle;Max_cycle;Signal;HPM_P1;HPM_P2
2022/09/04 00:00:07;;;;;;;;;;;;;;;17.60;83.32;101385.13;5055022;28;19931;-37
2022/09/04 00:02:54;;;;;;;;;;;;;;;17.55;83.44;101372.88;5054132;28;19929;-30
2022/09/04 00:05:25;;;;;;;;;;;;;;;17.53;84.09;101378.00;5052457;28;20358;-33
2022/09/04 00:07:57;;;;;;;;;;;;;;;17.51;84.33;101376.69;5054753;28;19932;-33
2022/09/04 00:10:29;;;;;;;;;;;;;;;17.49;84.31;101379.84;5036163;28;19928;-34
2022/09/04 00:13:03;;;;;;;;;;;;;;;17.47;84.88;101376.50;5054575;28;19928;-31
2022/09/04 00:15:34;;;;;;;;;;;;;;;17.44;85.45;101382.81;5053859;28;19928;-41
2022/09/04 00:18:05;;;;;;;;;;;;;;;17.44;85.51;101384.81;5054776;28;19928;-29
2022/09/04 00:20:38;;;;;;;;;;;;;;;17.40;85.79;101380.97;5054652;28;19964;-31
2022/09/04 00:23:11;;;;;;;;;;;;;;;17.39;86.17;101394.25;5053679;28;19936;-31
2022/09/04 00:25:44;;;;;;;;;;;;;;;17.37;86.44;101388.16;5054366;28;19929;-33
2022/09/04 00:28:26;;;;;;;;;;;;;;;17.34;86.34;101388.81;5054525;28;19947;-31
2022/09/04 00:30:58;;;;;;;;;;;;;;;17.34;86.93;101387.97;5053817;28;19973;-32
2022/09/04 00:33:30;;;;;;;;;;;;;;;17.34;87.43;101387.97;5054249;28;20378;-37
2022/09/04 00:36:01;;;;;;;;;;;;;;;17.34;87.55;101391.63;5054033;28;19931;-33
2022/09/04 00:38:35;;;;;;;;;;;;;;;17.34;87.39;101394.44;5053739;28;20293;-35
2022/09/04 00:41:06;;;;;;;;;;;;;;;17.33;88.16;101387.16;5054031;28;19943;-40
2022/09/04 00:43:49;;;;;;;;;;;;;;;17.33;88.36;101392.78;5053502;28;19932;-33
2022/09/04 00:46:41;;;;;;;;;;;;;;;17.32;89.06;101405.22;5044945;28;20008;-38
2022/09/04 00:49:23;;;;;;;;;;;;;;;17.31;89.43;101399.91;5054238;28;19929;-32
2022/09/04 00:51:54;;;;;;;;;;;;;;;17.29;89.69;101405.91;5050226;28;19925;-31
2022/09/04 00:54:38;;;;;;;;;;;;;;;17.28;89.78;101407.06;5053933;28;19925;-39
2022/09/04 00:57:25;;;;;;;;;;;;;;;17.26;90.28;101411.38;5053978;28;19936;-31
2022/09/04 01:00:02;;;;;;;;;;;;;;;17.25;90.17;101412.53;5053171;28;19947;-32
2022/09/04 01:02:32;;;;;;;;;;;;;;;17.25;90.13;101418.16;5053562;28;20707;-33
2022/09/04 01:05:03;;;;;;;;;;;;;;;17.23;90.67;101413.69;5052377;28;19929;-35
2022/09/04 01:07:41;;;;;;;;;;;;;;;17.23;90.45;101418.50;5053573;28;19936;-32
2022/09/04 01:10:19;;;;;;;;;;;;;;;17.21;90.50;101421.63;5053605;28;19929;-31
2022/09/04 01:12:51;;;;;;;;;;;;;;;17.20;90.87;101428.44;5052870;28;19936;-31
2022/09/04 01:15:24;;;;;;;;;;;;;;;17.19;90.77;101431.59;5053320;28;20371;-40
2022/09/04 01:17:56;;;;;;;;;;;;;;;17.18;90.98;101429.97;5053541;28;20366;-37
2022/09/04 01:20:33;;;;;;;;;;;;;;;17.17;91.15;101436.75;5043248;28;19929;-30
2022/09/04 01:23:10;;;;;;;;;;;;;;;17.16;91.16;101432.28;5053169;28;19925;-32
2022/09/04 01:25:55;;;;;;;;;;;;;;;17.17;91.57;101436.75;5052940;28;19925;-32
2022/09/04 01:28:27;;;;;;;;;;;;;;;17.16;91.67;101438.75;5053225;28;20382;-38
2022/09/04 01:30:59;;;;;;;;;;;;;;;17.15;91.60;101436.25;5053310;28;19925;-39
2022/09/04 01:33:31;;;;;;;;;;;;;;;17.16;91.84;101438.75;5052540;28;19925;-30
2022/09/04 01:36:03;;;;;;;;;;;;;;;17.17;91.98;101442.41;5053090;28;20485;-32
2022/09/04 01:38:34;;;;;;;;;;;;;;;17.15;91.71;101441.88;5052944;28;19925;-31
2022/09/04 01:41:09;;;;;;;;;;;;;;;17.14;91.52;101431.78;5052185;28;20015;-31
2022/09/04 01:43:36;;;;;;;;;;;;;;;17.10;91.24;101431.59;5052983;28;19951;-32
2022/09/04 01:46:27;;;;;;;;;;;;;;;17.07;91.15;101426.59;5052892;28;19931;-32
2022/09/04 01:49:01;;;;;;;;;;;;;;;17.07;91.71;101428.59;5026063;28;19935;-34
2022/09/04 01:51:39;;;;;;;;;;;;;;;17.05;92.03;101428.91;5053033;28;19932;-34
2022/09/04 01:54:12;;;;;;;;;;;;;;;17.02;92.21;101434.38;5052056;28;19925;-32
2022/09/04 01:56:44;;;;;;;;;;;;;;;16.99;92.56;101430.22;5052763;28;19951;-34
2022/09/04 01:59:17;;;;;;;;;;;;;;;16.97;92.92;101432.56;5052526;28;20426;-37
2022/09/04 02:01:48;;;;;;;;;;;;;;;16.97;92.97;101443.03;5052154;28;19929;-35
2022/09/04 02:04:20;;;;;;;;;;;;;;;16.95;93.11;101437.72;5052626;28;20345;-31
2022/09/04 02:06:52;;;;;;;;;;;;;;;16.94;93.43;101438.03;5053020;28;19931;-34
2022/09/04 02:09:28;;;;;;;;;;;;;;;16.93;93.46;101444.81;5051967;28;19935;-32
2022/09/04 02:12:03;;;;;;;;;;;;;;;16.91;93.54;101447.97;5052351;28;19936;-30
2022/09/04 02:14:39;;;;;;;;;;;;;;;16.90;94.13;101440.66;5052375;28;20294;-32
2022/09/04 02:17:09;;;;;;;;;;;;;;;16.91;94.54;101447.13;5050813;28;19925;-39
2022/09/04 02:19:46;;;;;;;;;;;;;;;16.91;94.90;101447.13;5052295;28;19925;-32
2022/09/04 02:22:22;;;;;;;;;;;;;;;16.87;95.37;101447.78;5051203;28;19965;-35
2022/09/04 02:24:52;;;;;;;;;;;;;;;16.86;95.30;101448.94;5052204;28;19929;-39
2022/09/04 02:27:25;;;;;;;;;;;;;;;16.85;95.30;101452.09;5052049;28;19948;-34
2022/09/04 02:29:55;;;;;;;;;;;;;;;16.83;95.46;101448.75;5051473;28;19984;-31
2022/09/04 02:32:25;;;;;;;;;;;;;;;16.81;95.87;101443.44;5052060;28;19933;-37
2022/09/04 02:34:58;;;;;;;;;;;;;;;16.80;95.75;101453.06;5051699;28;20398;-31
2022/09/04 02:37:28;;;;;;;;;;;;;;;16.77;95.83;101445.28;5051295;28;19928;-37
2022/09/04 02:40:00;;;;;;;;;;;;;;;16.76;96.15;101451.25;5052013;28;19929;-42
2022/09/04 02:42:33;;;;;;;;;;;;;;;16.76;96.50;101456.88;5051971;28;19933;-36
2022/09/04 02:45:09;;;;;;;;;;;;;;;16.77;98.03;101450.09;5040006;28;19990;-35
2022/09/04 02:47:42;;;;;;;;;;;;;;;16.78;97.93;101460.22;5051810;28;19950;-35
2022/09/04 02:50:14;;;;;;;;;;;;;;;16.76;97.33;101452.09;5066796;28;19936;-32
2022/09/04 02:52:52;;;;;;;;;;;;;;;16.77;97.81;101459.38;5051884;28;19960;-33
2022/09/04 02:55:30;;;;;;;;;;;;;;;16.78;99.17;101449.78;5051768;28;19925;-37
2022/09/04 02:58:07;;;;;;;;;;;;;;;16.80;99.72;101457.88;5051193;28;19925;-30
2022/09/04 03:00:40;;;;;;;;;;;;;;;16.80;100.00;101450.25;5040815;28;20393;-30
2022/09/04 03:03:12;;;;;;;;;;;;;;;16.82;100.00;101447.09;5051834;28;20315;-35
2022/09/04 03:05:45;;;;;;;;;;;;;;;16.83;100.00;101460.03;5050577;28;20390;-36
2022/09/04 03:08:15;;;;;;;;;;;;;;;16.84;100.00;101464.53;5051502;28;19929;-39
2022/09/04 03:10:45;;;;;;;;;;;;;;;16.82;100.00;101462.03;5051430;28;19925;-31
2022/09/04 03:13:20;;;;;;;;;;;;;;;16.83;100.00;101474.13;5050807;28;19924;-33
2022/09/04 03:15:50;;;;;;;;;;;;;;;16.83;100.00;101469.34;5033540;28;20305;-32
2022/09/04 03:18:22;;;;;;;;;;;;;;;16.83;100.00;101466.50;5039555;28;20329;-31
2022/09/04 03:20:52;;;;;;;;;;;;;;;16.81;100.00;101471.63;5048640;28;20302;-31
2022/09/04 03:23:21;;;;;;;;;;;;;;;16.82;100.00;101459.22;5051409;28;20109;-37
2022/09/04 03:25:56;;;;;;;;;;;;;;;16.81;100.00;101465.16;5049423;28;19932;-33
2022/09/04 03:28:30;;;;;;;;;;;;;;;16.79;100.00;101467.47;5050230;28;19924;-39
2022/09/04 03:31:00;;;;;;;;;;;;;;;16.77;100.00;101470.66;5047514;28;19933;-32
2022/09/04 03:33:30;;;;;;;;;;;;;;;16.77;100.00;101472.66;5048630;28;19997;-35
2022/09/04 03:36:00;;;;;;;;;;;;;;;16.76;100.00;101482.25;5050997;28;20354;-31
2022/09/04 03:38:32;;;;;;;;;;;;;;;16.75;100.00;101481.44;5051214;28;19925;-36
2022/09/04 03:41:07;;;;;;;;;;;;;;;16.75;100.00;101489.88;5050490;28;19929;-41
2022/09/04 03:43:45;;;;;;;;;;;;;;;16.74;100.00;101488.22;5050105;28;19929;-37
2022/09/04 03:46:19;;;;;;;;;;;;;;;16.73;100.00;101497.81;5051237;28;19932;-41
2022/09/04 03:48:56;;;;;;;;;;;;;;;16.71;100.00;101500.13;5050651;28;19975;-35
2022/09/04 03:51:33;;;;;;;;;;;;;;;16.69;100.00;101508.09;5050992;28;19929;-31
2022/09/04 03:54:08;;;;;;;;;;;;;;;16.67;100.00;101504.75;5049960;28;19929;-32
2022/09/04 03:56:43;;;;;;;;;;;;;;;16.63;100.00;101502.88;5033083;28;19924;-32
2022/09/04 03:59:17;;;;;;;;;;;;;;;16.62;100.00;101509.66;5051036;28;19924;-31
2022/09/04 04:01:50;;;;;;;;;;;;;;;16.59;100.00;101508.31;5050218;28;19936;-31
2022/09/04 04:04:38;;;;;;;;;;;;;;;16.58;100.00;101512.31;5050790;28;19950;-32
2022/09/04 04:07:09;;;;;;;;;;;;;;;16.58;100.00;101509.50;5000956;28;19929;-38
2022/09/04 04:09:53;;;;;;;;;;;;;;;16.58;100.00;101512.31;5047210;28;19925;-35
2022/09/04 04:12:28;;;;;;;;;;;;;;;16.59;100.00;101516.78;5049531;28;19931;-37
2022/09/04 04:15:03;;;;;;;;;;;;;;;16.60;100.00;101515.63;5050594;28;20370;-40
2022/09/04 04:17:41;;;;;;;;;;;;;;;16.62;100.00;101523.75;5049253;28;19986;-36
2022/09/04 04:20:21;;;;;;;;;;;;;;;16.61;100.00;101514.47;5050964;28;19929;-37
2022/09/04 04:23:02;;;;;;;;;;;;;;;16.61;100.00;101517.28;5049904;28;19925;-35
2022/09/04 04:25:40;;;;;;;;;;;;;;;16.60;100.00;101515.63;5050854;28;19925;-32
2022/09/04 04:28:18;;;;;;;;;;;;;;;16.62;100.00;101518.94;5048130;28;19931;-30
2022/09/04 04:30:51;;;;;;;;;;;;;;;16.65;100.00;101523.97;5050017;28;19925;-30
2022/09/04 04:33:41;;;;;;;;;;;;;;;16.65;100.00;101523.13;5050607;28;20372;-39
2022/09/04 04:36:16;;;;;;;;;;;;;;;16.66;100.00;101528.44;5035670;28;19937;-32
2022/09/04 04:38:53;;;;;;;;;;;;;;;16.66;100.00;101531.28;5050501;28;19929;-32
2022/09/04 04:41:29;;;;;;;;;;;;;;;16.66;100.00;101530.44;5052570;28;20305;-35
2022/09/04 04:44:04;;;;;;;;;;;;;;;16.64;100.00;101539.22;5052774;28;19925;-37
2022/09/04 04:46:42;;;;;;;;;;;;;;;16.64;100.00;101535.56;5053864;28;19925;-33
2022/09/04 04:49:31;;;;;;;;;;;;;;;16.62;100.00;101533.03;5042629;28;19952;-34
2022/09/04 04:52:08;;;;;;;;;;;;;;;16.60;100.00;101537.31;5045326;28;19925;-40
2022/09/04 04:54:51;;;;;;;;;;;;;;;16.59;100.00;101539.31;5053773;28;19967;-35
2022/09/04 04:57:27;;;;;;;;;;;;;;;16.56;100.00;101548.44;5049173;28;19925;-38
2022/09/04 05:00:05;;;;;;;;;;;;;;;16.57;100.00;101543.63;5053021;28;19925;-39
2022/09/04 05:02:39;;;;;;;;;;;;;;;16.54;100.00;101550.75;5053613;28;20023;-31
2022/09/04 05:05:12;;;;;;;;;;;;;;;16.52;100.00;101547.41;5053144;28;19925;-33
2022/09/04 05:07:42;;;;;;;;;;;;;;;16.52;100.00;101558.69;5053757;28;20313;-30
2022/09/04 05:10:16;;;;;;;;;;;;;;;16.51;100.00;101560.66;5053833;28;19936;-30
2022/09/04 05:13:02;;;;;;;;;;;;;;;16.51;100.00;101573.94;5052752;28;19928;-31
2022/09/04 05:15:34;;;;;;;;;;;;;;;16.51;100.00;101568.28;5053717;28;19928;-30
2022/09/04 05:18:26;;;;;;;;;;;;;;;16.52;100.00;101570.78;5052811;28;19973;-38
2022/09/04 05:20:56;;;;;;;;;;;;;;;16.53;100.00;101583.72;5053312;28;19932;-37
2022/09/04 05:23:29;;;;;;;;;;;;;;;16.54;100.00;101582.56;5052816;28;19933;-31
2022/09/04 05:26:00;;;;;;;;;;;;;;;16.55;100.00;101591.84;5052669;28;20374;-31
2022/09/04 05:28:33;;;;;;;;;;;;;;;16.56;100.00;101593.53;5053544;28;19929;-32
2022/09/04 05:31:08;;;;;;;;;;;;;;;16.56;100.00;101598.31;5053255;28;20337;-31
2022/09/04 05:33:41;;;;;;;;;;;;;;;16.55;100.00;101597.50;5052606;28;20011;-40
2022/09/04 05:36:12;;;;;;;;;;;;;;;16.56;100.00;101604.78;5053344;28;19924;-33
2022/09/04 05:38:46;;;;;;;;;;;;;;;16.57;100.00;101612.09;5052614;28;20308;-34
2022/09/04 05:41:20;;;;;;;;;;;;;;;16.59;100.00;101600.47;5052720;28;20289;-31
2022/09/04 05:44:03;;;;;;;;;;;;;;;16.60;100.00;101610.59;5052124;28;20408;-35
2022/09/04 05:46:39;;;;;;;;;;;;;;;16.61;100.00;101613.09;5050335;28;19929;-31
2022/09/04 05:49:15;;;;;;;;;;;;;;;16.63;100.00;101612.78;5050519;28;19928;-37
2022/09/04 05:52:01;;;;;;;;;;;;;;;16.67;100.00;101623.13;5051385;28;19924;-31
2022/09/04 05:54:46;;;;;;;;;;;;;;;16.69;100.00;101626.44;5050715;28;19931;-34
2022/09/04 05:57:31;;;;;;;;;;;;;;;16.73;100.00;101624.66;5051475;28;19932;-35
2022/09/04 06:00:07;;;;;;;;;;;;;;;16.77;100.00;101628.50;5050756;28;19925;-38
2022/09/04 06:02:59;;;;;;;;;;;;;;;16.83;100.00;101630.00;5051439;28;19929;-31
2022/09/04 06:05:32;;;;;;;;;;;;;;;16.88;100.00;101635.50;5047710;28;19925;-31
2022/09/04 06:08:02;;;;;;;;;;;;;;;16.93;100.00;101634.56;5051767;28;20394;-34
2022/09/04 06:10:35;;;;;;;;;;;;;;;16.99;100.00;101633.25;5052657;28;19963;-33
2022/09/04 06:13:14;;;;;;;;;;;;;;;17.04;100.00;101635.09;5052354;28;19932;-36
2022/09/04 06:15:48;;;;;;;;;;;;;;;17.08;100.00;101634.13;5045795;28;19928;-40
2022/09/04 06:18:38;;;;;;;;;;;;;;;17.17;100.00;101639.81;5052169;28;19940;-31
2022/09/04 06:21:35;;;;;;;;;;;;;;;17.24;100.00;101640.16;5051480;28;19951;-31
2022/09/04 06:24:11;;;;;;;;;;;;;;;17.31;100.00;101634.06;5048593;28;19929;-32
2022/09/04 06:26:53;;;;;;;;;;;;;;;17.37;100.00;101630.78;5052071;28;19979;-36
2022/09/04 06:29:28;;;;;;;;;;;;;;;17.44;100.00;101642.41;5049012;28;19932;-33
2022/09/04 06:32:06;;;;;;;;;;;;;;;17.51;100.00;101641.94;5052014;28;19971;-32
2022/09/04 06:34:45;;;;;;;;;;;;;;;17.58;100.00;101636.66;5050332;28;19925;-35
2022/09/04 06:37:20;;;;;;;;;;;;;;;17.67;100.00;101653.63;5050342;28;19924;-37
2022/09/04 06:39:56;;;;;;;;;;;;;;;17.74;100.00;101652.00;5052027;28;19925;-32
2022/09/04 06:42:29;;;;;;;;;;;;;;;17.82;100.00;101662.47;5050322;28;19931;-31
2022/09/04 06:45:06;;;;;;;;;;;;;;;17.89;100.00;101654.34;5052129;28;19951;-33
2022/09/04 06:47:43;;;;;;;;;;;;;;;17.95;100.00;101663.50;5050760;28;19932;-32
2022/09/04 06:50:19;;;;;;;;;;;;;;;18.04;100.00;101667.16;5051257;28;19925;-35
2022/09/04 06:52:57;;;;;;;;;;;;;;;18.16;100.00;101667.38;5051185;28;19933;-40
2022/09/04 06:55:33;;;;;;;;;;;;;;;18.37;100.00;101676.03;5050105;28;19929;-32
2022/09/04 06:58:10;;;;;;;;;;;;;;;18.66;100.00;101668.88;5046216;28;19932;-32
2022/09/04 07:00:40;;;;;;;;;;;;;;;19.00;100.00;101673.63;5032692;28;19929;-29
2022/09/04 07:03:26;;;;;;;;;;;;;;;19.32;100.00;101673.06;5050056;28;19933;-33
2022/09/04 07:05:59;;;;;;;;;;;;;;;19.68;100.00;101666.09;5039487;28;19928;-39
2022/09/04 07:08:37;;;;;;;;;;;;;;;19.99;100.00;101662.88;5047775;28;19924;-34
2022/09/04 07:11:14;;;;;;;;;;;;;;;20.30;100.00;101667.00;5049818;28;19928;-32
2022/09/04 07:13:49;;;;;;;;;;;;;;;20.63;100.00;101666.25;5046936;28;20294;-32
2022/09/04 07:16:25;;;;;;;;;;;;;;;20.94;100.00;101671.47;5040605;28;19929;-32
2022/09/04 07:19:12;;;;;;;;;;;;;;;21.16;100.00;101673.06;5049307;28;19929;-32
2022/09/04 07:21:44;;;;;;;;;;;;;;;21.40;100.00;101678.78;5041257;28;20381;-32
2022/09/04 07:24:32;;;;;;;;;;;;;;;21.62;100.00;101678.34;5050022;28;20294;-39
2022/09/04 07:27:06;;;;;;;;;;;;;;;21.99;100.00;101684.84;5050327;28;19928;-36
2022/09/04 07:29:37;;;;;;;;;;;;;;;22.23;99.48;101675.47;5039832;28;19955;-32
2022/09/04 07:32:08;;;;;;;;;;;;;;;22.46;98.23;101686.31;5049194;28;19928;-32
2022/09/04 07:34:40;;;;;;;;;;;;;;;22.74;95.67;101690.03;5050275;28;19933;-32
2022/09/04 07:37:14;;;;;;;;;;;;;;;22.93;94.01;101695.06;5050020;28;19925;-34
2022/09/04 07:39:47;;;;;;;;;;;;;;;23.06;90.96;101698.69;5049411;28;19935;-32
2022/09/04 07:42:21;;;;;;;;;;;;;;;23.09;90.76;101692.25;5049905;28;19936;-33
2022/09/04 07:44:53;;;;;;;;;;;;;;;23.28;90.69;101695.22;5049769;28;19932;-36
2022/09/04 07:47:25;;;;;;;;;;;;;;;23.58;89.61;101687.91;5038766;28;19928;-35
2022/09/04 07:49:58;;;;;;;;;;;;;;;23.82;86.58;101686.06;5050140;28;19932;-41
2022/09/04 07:52:38;;;;;;;;;;;;;;;23.88;84.88;101687.44;5049874;28;19943;-42
2022/09/04 07:55:14;;;;;;;;;;;;;;;23.99;84.74;101697.06;5049699;28;19933;-36
2022/09/04 07:57:52;;;;;;;;;;;;;;;24.15;83.65;101699.91;5039565;28;19929;-38
2022/09/04 08:00:21;;;;;;;;;;;;;;;24.38;83.66;101700.88;5049101;28;19951;-36
2022/09/04 08:03:10;;;;;;;;;;;;;;;24.64;82.24;101714.50;5039232;28;19929;-33
2022/09/04 08:05:43;;;;;;;;;;;;;;;24.76;80.10;101707.84;5043795;28;19929;-31
2022/09/04 08:08:30;;;;;;;;;;;;;;;24.84;80.03;101704.72;5049222;28;19935;-40
2022/09/04 08:11:07;;;;;;;;;;;;;;;24.92;78.01;101712.25;5039051;28;19931;-40
2022/09/04 08:13:46;;;;;;;;;;;;;;;24.90;78.42;101708.94;5047817;28;20503;-31
2022/09/04 08:16:18;;;;;;;;;;;;;;;24.81;77.21;101711.19;5042053;28;19924;-36
2022/09/04 08:19:00;;;;;;;;;;;;;;;24.79;79.33;101713.59;5053783;28;20294;-32
2022/09/04 08:21:29;;;;;;;;;;;;;;;24.79;79.22;101724.19;5043554;28;20042;-33
2022/09/04 08:24:03;;;;;;;;;;;;;;;24.83;79.53;101719.38;5053754;28;19939;-33
2022/09/04 08:26:38;;;;;;;;;;;;;;;24.95;79.20;101722.13;5052896;28;19929;-32
2022/09/04 08:29:19;;;;;;;;;;;;;;;25.10;78.73;101726.94;5052348;28;19929;-35
2022/09/04 08:31:52;;;;;;;;;;;;;;;25.30;77.29;101727.72;5043321;28;19928;-31
2022/09/04 08:34:45;;;;;;;;;;;;;;;25.32;75.05;101731.84;5054343;28;19929;-30
2022/09/04 08:37:20;;;;;;;;;;;;;;;25.37;75.48;101733.59;5030100;28;20020;-38
2022/09/04 08:39:53;;;;;;;;;;;;;;;25.51;74.76;101733.84;5053364;28;19925;-37
2022/09/04 08:42:41;;;;;;;;;;;;;;;25.65;73.79;101745.56;5052407;28;19930;-32
2022/09/04 08:45:31;;;;;;;;;;;;;;;25.79;73.51;101744.16;5052407;28;19925;-38
2022/09/04 08:48:35;;;;;;;;;;;;;;;25.91;73.04;101747.66;5053119;28;19925;-33
2022/09/04 08:51:15;;;;;;;;;;;;;;;26.17;71.67;101746.03;5048060;28;19932;-33
2022/09/04 08:54:12;;;;;;;;;;;;;;;26.34;69.71;101751.25;5034487;28;19925;-34
2022/09/04 08:56:46;;;;;;;;;;;;;;;26.33;68.49;101749.59;5053057;28;19935;-33
2022/09/04 08:59:32;;;;;;;;;;;;;;;26.54;68.64;101752.78;5050510;28;20024;-33
2022/09/04 09:02:15;;;;;;;;;;;;;;;26.87;69.54;101749.13;5052465;28;20430;-33
2022/09/04 09:04:58;;;;;;;;;;;;;;;27.16;63.41;101761.81;5053104;28;19925;-34
2022/09/04 09:07:37;;;;;;;;;;;;;;;27.33;63.72;101763.22;5053741;28;19955;-35
2022/09/04 09:10:33;;;;;;;;;;;;;;;27.48;63.73;101767.06;5024686;28;20297;-33
2022/09/04 09:13:15;;;;;;;;;;;;;;;27.78;65.38;101771.50;5042976;28;20023;-38
2022/09/04 09:16:01;;;;;;;;;;;;;;;28.09;59.95;101766.47;5033593;28;20297;-32
2022/09/04 09:18:35;;;;;;;;;;;;;;;28.29;61.11;101765.00;5052903;28;19924;-33
2022/09/04 09:21:08;;;;;;;;;;;;;;;28.60;60.03;101757.81;5052881;28;19978;-36
2022/09/04 09:23:44;;;;;;;;;;;;;;;28.92;58.68;101749.41;5052813;28;19928;-36
2022/09/04 09:26:22;;;;;;;;;;;;;;;29.28;55.78;101755.28;5052005;28;19932;-35
2022/09/04 09:29:15;;;;;;;;;;;;;;;29.56;55.60;101758.28;5053292;28;19936;-35
2022/09/04 09:32:06;;;;;;;;;;;;;;;29.69;54.97;101759.50;5052351;28;19929;-39
2022/09/04 09:35:03;;;;;;;;;;;;;;;29.81;53.21;101761.16;5053136;28;20020;-38
2022/09/04 09:37:44;;;;;;;;;;;;;;;29.75;50.71;101759.94;5047867;28;19925;-41
2022/09/04 09:40:30;;;;;;;;;;;;;;;29.63;52.81;101751.69;5050419;28;20290;-35
2022/09/04 09:43:12;;;;;;;;;;;;;;;29.60;51.74;101759.06;5053205;28;19935;-36
2022/09/04 09:45:50;;;;;;;;;;;;;;;29.58;53.60;101757.84;5051588;28;19925;-37
2022/09/04 09:48:33;;;;;;;;;;;;;;;29.91;53.56;101766.13;5052894;28;19928;-37
2022/09/04 09:51:13;;;;;;;;;;;;;;;29.89;50.32;101756.25;5053184;28;19924;-43
2022/09/04 09:53:55;;;;;;;;;;;;;;;29.87;51.97;101764.47;5051740;28;19935;-34
2022/09/04 09:56:41;;;;;;;;;;;;;;;29.88;50.49;101764.06;5051364;28;19929;-40
2022/09/04 09:59:34;;;;;;;;;;;;;;;29.97;51.85;101760.78;5049902;28;20024;-35
2022/09/04 10:02:11;;;;;;;;;;;;;;;29.94;51.43;101762.41;5043971;28;19924;-36
2022/09/04 10:04:54;;;;;;;;;;;;;;;30.02;52.14;101763.25;5052391;28;19975;-43
2022/09/04 10:07:36;;;;;;;;;;;;;;;30.07;51.44;101763.69;5048160;28;19929;-43
2022/09/04 10:10:24;;;;;;;;;;;;;;;30.26;50.71;101770.25;5043249;28;19932;-39
2022/09/04 10:13:09;;;;;;;;;;;;;;;30.33;51.00;101771.06;5052072;28;19932;-33
2022/09/04 10:15:57;;;;;;;;;;;;;;;30.40;49.05;101773.09;5052445;28;19929;-35
2022/09/04 10:18:40;;;;;;;;;;;;;;;30.36;49.23;101770.25;5052175;28;20306;-43
2022/09/04 10:21:19;;;;;;;;;;;;;;;30.36;50.78;101778.88;5051481;28;19928;-38
2022/09/04 10:23:54;;;;;;;;;;;;;;;30.63;49.73;101775.56;5044748;28;19928;-35
2022/09/04 10:26:42;;;;;;;;;;;;;;;30.70;48.27;101785.03;5052052;28;19925;-35
2022/09/04 10:29:18;;;;;;;;;;;;;;;30.78;51.82;101788.69;5045136;28;19925;-40
2022/09/04 10:32:03;;;;;;;;;;;;;;;30.81;51.09;101782.09;5051275;28;19925;-41
2022/09/04 10:34:41;;;;;;;;;;;;;;;30.81;50.98;101784.97;5001549;28;19932;-37
2022/09/04 10:37:19;;;;;;;;;;;;;;;30.77;51.96;101785.00;5050870;28;20283;-37
2022/09/04 10:42:50;;;;;;;;;;;;;;;30.98;51.60;101795.63;5048062;28;19931;-43
2022/09/04 10:45:24;;;;;;;;;;;;;;;31.07;50.40;101783.66;5051726;28;19932;-33
2022/09/04 10:48:13;;;;;;;;;;;;;;;31.03;51.42;101789.44;5048432;28;19935;-33
2022/09/04 10:50:56;;;;;;;;;;;;;;;30.97;51.01;101793.19;5050213;28;19935;-37
2022/09/04 10:53:41;;;;;;;;;;;;;;;30.86;50.25;101787.44;5051825;28;19972;-40
2022/09/04 10:56:16;;;;;;;;;;;;;;;30.86;52.71;101784.56;4998408;28;19929;-33
2022/09/04 10:59:01;;;;;;;;;;;;;;;31.03;51.66;101786.56;5041419;28;19925;-41
2022/09/04 11:01:44;;;;;;;;;;;;;;;31.22;50.50;101788.16;5051576;28;19925;-33
2022/09/04 11:04:28;;;;;;;;;;;;;;;31.29;50.11;101788.13;5047720;28;21146;-38
2022/09/04 11:07:08;;;;;;;;;;;;;;;31.27;49.81;101786.88;5051601;28;19924;-36
2022/09/04 11:09:58;;;;;;;;;;;;;;;31.27;50.89;101784.00;5050961;28;19925;-37
2022/09/04 11:12:35;;;;;;;;;;;;;;;31.36;50.58;101782.31;5051480;28;19951;-38
2022/09/04 11:15:09;;;;;;;;;;;;;;;31.50;49.79;101772.75;5051588;28;19925;-37
2022/09/04 11:17:58;;;;;;;;;;;;;;;31.67;49.49;101785.47;5050449;28;20394;-36
2022/09/04 11:20:43;;;;;;;;;;;;;;;31.84;48.35;101785.31;5008011;28;19944;-39
2022/09/04 11:23:29;;;;;;;;;;;;;;;31.97;47.72;101787.72;5050756;28;19931;-39
2022/09/04 11:26:30;;;;;;;;;;;;;;;32.11;47.78;101791.31;5044660;28;19932;-29
2022/09/04 11:29:09;;;;;;;;;;;;;;;32.25;47.46;101790.38;5009236;28;19929;-32
2022/09/04 11:31:52;;;;;;;;;;;;;;;32.40;46.31;101791.88;5008457;28;19925;-35
2022/09/04 11:34:42;;;;;;;;;;;;;;;32.40;45.88;101791.88;5033538;28;19928;-35
2022/09/04 11:37:31;;;;;;;;;;;;;;;32.41;46.65;101792.72;5048957;28;20378;-42
2022/09/04 11:40:19;;;;;;;;;;;;;;;32.49;45.84;101798.00;5049135;28;19925;-41
2022/09/04 11:42:57;;;;;;;;;;;;;;;32.60;45.61;101797.06;5049302;28;19936;-34
2022/09/04 11:45:43;;;;;;;;;;;;;;;32.67;45.12;101797.81;5050609;28;19925;-36
2022/09/04 11:48:30;;;;;;;;;;;;;;;32.63;45.02;101802.81;5039830;28;20387;-33
2022/09/04 11:51:15;;;;;;;;;;;;;;;32.74;45.40;101794.88;5054403;28;19929;-38
2022/09/04 11:54:12;;;;;;;;;;;;;;;32.78;44.57;101791.94;5054489;28;19925;-33
2022/09/04 11:56:56;;;;;;;;;;;;;;;32.83;44.18;101800.16;4954482;29;20384;-32
2022/09/04 11:59:39;;;;;;;;;;;;;;;32.89;44.08;101803.41;5041695;28;19937;-33
2022/09/04 12:02:20;;;;;;;;;;;;;;;32.92;44.17;101793.88;5047838;28;19929;-40
2022/09/04 12:05:03;;;;;;;;;;;;;;;33.04;44.24;101804.84;5054442;28;19929;-32
2022/09/04 12:07:39;;;;;;;;;;;;;;;33.05;43.21;101801.53;5053521;28;19924;-35
2022/09/04 12:10:25;;;;;;;;;;;;;;;33.05;44.02;101803.59;5054521;28;19925;-38
2022/09/04 12:13:06;;;;;;;;;;;;;;;33.02;43.47;101807.34;5053691;28;20289;-32
2022/09/04 12:15:59;;;;;;;;;;;;;;;32.98;44.11;101806.56;5053045;28;19971;-33
2022/09/04 12:18:40;;;;;;;;;;;;;;;32.89;44.14;101807.09;5052729;28;20598;-32
2022/09/04 12:21:19;;;;;;;;;;;;;;;32.71;44.06;101804.38;5051771;28;19925;-40
2022/09/04 12:24:01;;;;;;;;;;;;;;;32.58;44.75;101811.13;5053846;28;19924;-31
2022/09/04 12:26:37;;;;;;;;;;;;;;;32.44;44.61;101809.19;5054429;28;19928;-29
2022/09/04 12:29:30;;;;;;;;;;;;;;;32.02;44.72;101810.34;5052652;28;20512;-36
2022/09/04 12:32:09;;;;;;;;;;;;;;;31.76;45.67;101811.78;5053281;28;20281;-35
2022/09/04 12:34:46;;;;;;;;;;;;;;;31.68;46.34;101805.25;5051958;28;19931;-35
2022/09/04 12:37:27;;;;;;;;;;;;;;;31.51;45.88;101811.91;5053120;28;20301;-33
2022/09/04 12:40:09;;;;;;;;;;;;;;;31.28;47.20;101817.38;5043175;28;19925;-35
2022/09/04 12:42:41;;;;;;;;;;;;;;;30.91;48.43;101815.84;5053221;28;19932;-35
2022/09/04 12:45:19;;;;;;;;;;;;;;;30.78;48.63;101811.75;5053995;28;19939;-36
2022/09/04 12:47:57;;;;;;;;;;;;;;;30.63;49.40;101813.00;5054188;28;19931;-33
2022/09/04 12:50:39;;;;;;;;;;;;;;;30.53;50.02;101813.84;5054019;28;20404;-38
2022/09/04 12:53:26;;;;;;;;;;;;;;;30.62;49.84;101817.13;5054034;28;19925;-32
2022/09/04 12:56:01;;;;;;;;;;;;;;;30.69;49.73;101817.13;5053334;28;19936;-31
2022/09/04 12:58:37;;;;;;;;;;;;;;;30.74;49.56;101816.72;5054098;28;20419;-34
2022/09/04 13:01:12;;;;;;;;;;;;;;;30.74;49.55;101816.72;5053120;28;19924;-37
2022/09/04 13:03:47;;;;;;;;;;;;;;;30.71;50.01;101820.41;5052992;28;20300;-33
2022/09/04 13:06:24;;;;;;;;;;;;;;;30.72;49.49;101819.19;5053994;28;20295;-36
2022/09/04 13:08:56;;;;;;;;;;;;;;;30.77;49.16;101815.88;5053800;28;19932;-29
2022/09/04 13:11:31;;;;;;;;;;;;;;;30.80;48.31;101823.69;5053564;28;19929;-29
2022/09/04 13:14:06;;;;;;;;;;;;;;;30.60;48.65;101825.38;5053632;28;19929;-29
2022/09/04 13:16:40;;;;;;;;;;;;;;;30.32;49.26;101821.25;5052876;28;19924;-34
2022/09/04 13:19:13;;;;;;;;;;;;;;;30.08;50.99;101824.97;5053684;28;19975;-30
2022/09/04 13:21:56;;;;;;;;;;;;;;;30.04;51.28;101822.06;5053467;28;19932;-29
2022/09/04 13:24:34;;;;;;;;;;;;;;;30.01;51.38;101825.75;5053094;28;19932;-32
2022/09/04 13:27:15;;;;;;;;;;;;;;;30.01;51.30;101827.81;5053607;28;19995;-34
2022/09/04 13:29:49;;;;;;;;;;;;;;;29.92;51.18;101831.09;5053562;28;19925;-29